Startpagina
METAR-TAF:

METAR-TAF

Vliegvelden :

Foz do Iguaçu, Paraná, Brazilië

Aeroporto Internacional de Foz do Iguaçu

breedte: 25-31S, lengte: 054-35W, hoogte: 180 m

Actueel weer

Dit bericht is 42 minuten geleden gemaakt, om 00:00 UTC
Weinig wind
Temperatuur 17°C
Vochtigheid 72%
Druk 1021 hPa
Zicht 10 km of meer
geen wolken onder 1500 m en geen cumulonimbus

METAR: SBFI 260000Z 00000KT CAVOK 17/12 Q1021

Tijdstip: 21:42 (00:42 UTC)

Verwachting

Dit bericht is 2 uur en het 42 minuten geleden gemaakt, om 22:00 UTC
Verwachting geldig van 26 om 00 UTC tot 26 om 24 UTC
Wind 5 kt uit het oosten
Zicht 10 km of meer
geen wolken onder 1500 m en geen cumulonimbus
Wijzigt naar
van 26 om 11 UTC tot 26 om 13 UTC
Wind 5 kt uit het noordnoordoosten

TAF: SBFI 252200Z 2600/2624 08005KT CAVOK TN16/2609Z TX29/2618Z BECMG 2611/2613 03005KT RMK PER

Waarnemingen en weersverwachtingen van meer dan 4000 vliegvelden (METAR en TAF).

De beschikbare stations zijn de gele en rode punten op de kaart.

Ga met uw muis naar het station om de naam te zien.

Klik dan om waarnemingen en weersverwachtingen te zien.

kaart wijzigen: klik op de groene knoppen met een zwart kruis om in te zoomen, op de groene knop met een streepje om uit te zoomen of op de groene pijlen voor aangrenzende kaarten.


METAR-TAF: